Time;durP1;ratioP1;P1;durP2;ratioP2;P2;SDS_P1;SDS_P2;PMS_P1;PMS_P2;Temp;Humidity;BMP_temperature;BMP_pressure;BME280_temperature;BME280_humidity;BME280_pressure;Samples;Min_cycle;Max_cycle;Signal;HPM_P1;HPM_P2
2024/02/16 00:00:08;;;;;;;36.28;16.67;;;;;;;;;;6090802;23;20433;-71
2024/02/16 00:02:33;;;;;;;33.75;17.05;;;;;;;;;;6093291;23;20010;-71
2024/02/16 00:04:59;;;;;;;35.53;17.15;;;;;;;;;;6091294;23;20097;-71
2024/02/16 00:07:25;;;;;;;29.70;16.02;;;;;;;;;;6091538;23;20089;-72
2024/02/16 00:09:50;;;;;;;32.55;16.45;;;;;;;;;;6091130;23;20010;-73
2024/02/16 00:12:16;;;;;;;27.33;16.38;;;;;;;;;;6091438;23;20034;-70
2024/02/16 00:14:42;;;;;;;28.02;15.55;;;;;;;;;;6091601;23;20033;-72
2024/02/16 00:17:10;;;;;;;27.17;16.65;;;;;;;;;;6092208;23;20042;-70
2024/02/16 00:19:36;;;;;;;29.77;15.40;;;;;;;;;;6091566;23;20002;-72
2024/02/16 00:22:02;;;;;;;34.63;20.35;;;;;;;;;;6091033;23;20002;-70
2024/02/16 00:24:27;;;;;;;37.80;16.63;;;;;;;;;;6091501;23;20068;-71
2024/02/16 00:26:53;;;;;;;29.52;15.90;;;;;;;;;;6093028;23;20030;-70
2024/02/16 00:29:19;;;;;;;27.65;16.45;;;;;;;;;;6093651;23;20034;-72
2024/02/16 00:31:45;;;;;;;27.95;15.35;;;;;;;;;;6091638;23;20317;-71
2024/02/16 00:34:11;;;;;;;30.25;15.70;;;;;;;;;;6092185;23;20006;-70
2024/02/16 00:36:37;;;;;;;33.25;16.50;;;;;;;;;;6067568;23;20014;-70
2024/02/16 00:39:03;;;;;;;26.55;14.88;;;;;;;;;;6092852;23;20432;-71
2024/02/16 00:41:29;;;;;;;34.70;15.60;;;;;;;;;;6091465;23;20006;-70
2024/02/16 00:43:56;;;;;;;32.35;15.27;;;;;;;;;;6091204;23;20009;-72
2024/02/16 00:46:22;;;;;;;26.60;14.52;;;;;;;;;;6091971;23;20017;-71
2024/02/16 00:48:52;;;;;;;27.55;14.85;;;;;;;;;;6093880;23;20013;-71
2024/02/16 00:51:17;;;;;;;26.48;15.75;;;;;;;;;;6092388;23;20021;-72
2024/02/16 00:53:43;;;;;;;28.67;17.90;;;;;;;;;;6093952;23;20003;-72
2024/02/16 00:56:09;;;;;;;31.27;15.68;;;;;;;;;;6091263;23;20076;-70
2024/02/16 00:58:36;;;;;;;30.55;16.83;;;;;;;;;;6093028;23;20026;-72
2024/02/16 01:01:04;;;;;;;28.10;15.63;;;;;;;;;;6090921;23;20093;-72
2024/02/16 01:03:29;;;;;;;32.80;17.30;;;;;;;;;;6091097;23;20094;-70
2024/02/16 01:05:55;;;;;;;28.52;16.38;;;;;;;;;;6092196;23;20006;-70
2024/02/16 01:08:20;;;;;;;27.65;16.20;;;;;;;;;;6091299;23;20010;-71
2024/02/16 01:10:47;;;;;;;30.48;16.45;;;;;;;;;;6091370;23;20061;-71
2024/02/16 01:13:12;;;;;;;31.08;17.17;;;;;;;;;;6090993;23;20022;-72
2024/02/16 01:15:38;;;;;;;31.85;16.70;;;;;;;;;;6093582;23;20013;-70
2024/02/16 01:18:05;;;;;;;32.92;17.90;;;;;;;;;;6093300;23;20007;-71
2024/02/16 01:20:31;;;;;;;28.13;16.73;;;;;;;;;;6090987;23;20014;-72
2024/02/16 01:22:57;;;;;;;35.08;17.23;;;;;;;;;;6091123;23;20033;-70
2024/02/16 01:25:22;;;;;;;34.55;18.30;;;;;;;;;;6093169;23;20006;-70
2024/02/16 01:27:48;;;;;;;28.27;17.48;;;;;;;;;;6092633;23;20081;-72
2024/02/16 01:30:15;;;;;;;34.83;17.48;;;;;;;;;;6092797;23;20002;-71
2024/02/16 01:32:41;;;;;;;33.20;17.70;;;;;;;;;;6093061;23;20335;-73
2024/02/16 01:35:07;;;;;;;28.63;16.77;;;;;;;;;;6091256;23;20015;-69
2024/02/16 01:37:32;;;;;;;30.58;16.45;;;;;;;;;;6090955;23;20093;-71
2024/02/16 01:39:58;;;;;;;35.95;16.45;;;;;;;;;;6090907;23;20010;-71
2024/02/16 01:42:24;;;;;;;32.17;16.40;;;;;;;;;;6091046;23;20010;-70
2024/02/16 01:44:49;;;;;;;35.72;16.58;;;;;;;;;;6092915;23;20344;-71
2024/02/16 01:47:16;;;;;;;33.60;15.23;;;;;;;;;;6092767;23;20477;-71
2024/02/16 01:49:42;;;;;;;34.30;16.47;;;;;;;;;;6091154;23;20089;-71
2024/02/16 01:52:07;;;;;;;27.50;15.27;;;;;;;;;;6090509;23;20040;-71
2024/02/16 01:54:33;;;;;;;28.83;15.25;;;;;;;;;;6091050;23;20440;-72
2024/02/16 01:57:00;;;;;;;26.60;13.93;;;;;;;;;;6090765;23;20377;-70
2024/02/16 01:59:29;;;;;;;27.58;14.80;;;;;;;;;;6091191;23;20021;-70
2024/02/16 02:01:54;;;;;;;24.07;15.80;;;;;;;;;;6094474;23;20017;-71
2024/02/16 02:04:20;;;;;;;27.93;16.50;;;;;;;;;;6098058;23;20011;-70
2024/02/16 02:06:45;;;;;;;27.00;14.80;;;;;;;;;;6099785;23;20010;-70
2024/02/16 02:09:11;;;;;;;27.47;14.47;;;;;;;;;;6092716;23;20006;-71
2024/02/16 02:11:37;;;;;;;24.02;14.35;;;;;;;;;;6091240;23;20340;-70
2024/02/16 02:14:03;;;;;;;26.43;15.10;;;;;;;;;;6091687;23;20013;-71
2024/02/16 02:16:32;;;;;;;27.97;13.23;;;;;;;;;;6093171;23;20010;-71
2024/02/16 02:18:58;;;;;;;23.67;14.37;;;;;;;;;;6092870;23;20215;-74
2024/02/16 02:21:23;;;;;;;22.20;14.37;;;;;;;;;;6092869;23;20030;-71
2024/02/16 02:23:48;;;;;;;24.10;13.93;;;;;;;;;;6093135;23;20327;-70
2024/02/16 02:26:16;;;;;;;23.40;14.33;;;;;;;;;;6090823;23;20016;-70
2024/02/16 02:28:42;;;;;;;23.40;15.20;;;;;;;;;;6093944;23;20061;-73
2024/02/16 02:31:09;;;;;;;19.93;12.77;;;;;;;;;;6093321;23;20010;-70
2024/02/16 02:33:35;;;;;;;28.30;14.13;;;;;;;;;;6092131;23;20065;-70
2024/02/16 02:36:01;;;;;;;26.77;15.63;;;;;;;;;;6092574;23;20073;-70
2024/02/16 02:38:27;;;;;;;26.20;13.80;;;;;;;;;;6069068;23;20014;-70
2024/02/16 02:40:52;;;;;;;23.53;14.70;;;;;;;;;;6092277;23;20080;-70
2024/02/16 02:43:19;;;;;;;22.00;13.87;;;;;;;;;;6092469;23;20002;-72
2024/02/16 02:45:44;;;;;;;22.40;14.07;;;;;;;;;;6069564;23;20021;-71
2024/02/16 02:48:11;;;;;;;21.83;13.10;;;;;;;;;;6093547;23;20081;-71
2024/02/16 02:50:37;;;;;;;23.67;13.87;;;;;;;;;;6093958;23;20006;-71
2024/02/16 02:53:02;;;;;;;23.47;13.47;;;;;;;;;;6092454;23;20016;-70
2024/02/16 02:55:28;;;;;;;20.43;13.30;;;;;;;;;;6094812;23;20424;-71
2024/02/16 02:57:53;;;;;;;23.93;14.00;;;;;;;;;;6094108;23;20006;-70
2024/02/16 03:00:19;;;;;;;26.00;13.03;;;;;;;;;;6091828;23;20022;-70
2024/02/16 03:02:44;;;;;;;22.60;13.93;;;;;;;;;;6093963;23;20061;-70
2024/02/16 03:05:11;;;;;;;27.97;13.53;;;;;;;;;;6092385;23;20069;-70
2024/02/16 03:07:37;;;;;;;23.53;13.17;;;;;;;;;;6092588;23;20017;-71
2024/02/16 03:10:03;;;;;;;22.87;14.23;;;;;;;;;;6092460;23;20014;-72
2024/02/16 03:12:29;;;;;;;24.47;13.77;;;;;;;;;;6092065;23;20343;-72
2024/02/16 03:14:56;;;;;;;27.50;14.47;;;;;;;;;;6092346;23;20093;-70
2024/02/16 03:17:21;;;;;;;23.70;13.07;;;;;;;;;;6094107;23;20096;-71
2024/02/16 03:19:47;;;;;;;23.77;13.70;;;;;;;;;;6094501;23;20472;-70
2024/02/16 03:22:12;;;;;;;22.80;13.67;;;;;;;;;;6094248;23;20013;-71
2024/02/16 03:24:38;;;;;;;21.50;12.83;;;;;;;;;;6094543;23;20030;-69
2024/02/16 03:27:04;;;;;;;24.30;14.20;;;;;;;;;;6093945;23;20024;-71
2024/02/16 03:29:29;;;;;;;25.57;13.63;;;;;;;;;;6093982;23;20006;-70
2024/02/16 03:31:55;;;;;;;24.47;13.97;;;;;;;;;;6092266;23;20109;-73
2024/02/16 03:34:20;;;;;;;22.60;13.07;;;;;;;;;;6092392;23;20347;-70
2024/02/16 03:36:46;;;;;;;23.10;14.03;;;;;;;;;;6092444;23;20013;-73
2024/02/16 03:39:11;;;;;;;24.13;14.00;;;;;;;;;;6068661;23;20009;-70
2024/02/16 03:41:37;;;;;;;25.47;14.70;;;;;;;;;;6094275;23;20082;-71
2024/02/16 03:44:03;;;;;;;25.53;14.77;;;;;;;;;;6092134;23;19998;-74
2024/02/16 03:46:28;;;;;;;26.80;14.20;;;;;;;;;;6091809;23;20033;-70
2024/02/16 03:48:54;;;;;;;19.30;13.67;;;;;;;;;;6093824;23;20485;-72
2024/02/16 03:51:19;;;;;;;25.67;14.43;;;;;;;;;;6093817;23;20029;-71
2024/02/16 03:53:46;;;;;;;30.10;14.80;;;;;;;;;;6092245;23;20450;-72
2024/02/16 03:56:12;;;;;;;26.93;14.63;;;;;;;;;;6091397;23;20016;-72
2024/02/16 03:58:37;;;;;;;23.27;13.53;;;;;;;;;;6093138;23;20085;-71
2024/02/16 04:01:05;;;;;;;25.37;14.67;;;;;;;;;;6091941;23;20382;-74
2024/02/16 04:03:30;;;;;;;37.90;16.77;;;;;;;;;;6093581;23;20462;-70
2024/02/16 04:05:56;;;;;;;23.47;14.23;;;;;;;;;;6092080;23;20006;-70
2024/02/16 04:08:22;;;;;;;34.93;14.40;;;;;;;;;;6092846;23;20385;-70
2024/02/16 04:10:47;;;;;;;34.53;14.80;;;;;;;;;;6093411;23;20017;-72
2024/02/16 04:13:14;;;;;;;33.73;14.57;;;;;;;;;;6092065;23;20014;-71
2024/02/16 04:15:40;;;;;;;41.23;16.03;;;;;;;;;;6091529;23;20440;-72
2024/02/16 04:18:06;;;;;;;33.30;13.53;;;;;;;;;;6090894;23;20049;-71
2024/02/16 04:20:33;;;;;;;33.87;16.93;;;;;;;;;;6091705;23;20062;-70
2024/02/16 04:22:58;;;;;;;25.57;13.87;;;;;;;;;;6091380;23;20507;-69
2024/02/16 04:25:24;;;;;;;28.27;14.53;;;;;;;;;;6091106;23;20030;-69
2024/02/16 04:27:50;;;;;;;25.17;14.80;;;;;;;;;;6091861;23;20010;-70
2024/02/16 04:30:16;;;;;;;28.13;14.17;;;;;;;;;;6091320;23;20092;-70
2024/02/16 04:32:41;;;;;;;29.87;15.17;;;;;;;;;;6093095;23;20408;-70
2024/02/16 04:35:11;;;;;;;28.90;15.43;;;;;;;;;;6091583;23;20009;-71
2024/02/16 04:37:38;;;;;;;30.57;15.27;;;;;;;;;;6091560;23;20003;-70
2024/02/16 04:40:05;;;;;;;27.40;14.20;;;;;;;;;;6092984;23;20090;-70
2024/02/16 04:42:31;;;;;;;28.00;14.77;;;;;;;;;;6091506;23;20094;-71
2024/02/16 04:44:56;;;;;;;28.30;15.20;;;;;;;;;;6093088;23;20022;-70
2024/02/16 04:47:22;;;;;;;25.00;14.67;;;;;;;;;;6091299;23;20353;-71
2024/02/16 04:49:48;;;;;;;34.63;14.63;;;;;;;;;;6091082;23;20392;-71
2024/02/16 04:52:13;;;;;;;22.30;13.83;;;;;;;;;;6091235;23;19998;-71
2024/02/16 04:54:40;;;;;;;24.83;14.50;;;;;;;;;;6093294;23;20010;-70
2024/02/16 04:57:06;;;;;;;28.00;15.37;;;;;;;;;;6092913;23;20439;-72
2024/02/16 04:59:31;;;;;;;28.53;15.27;;;;;;;;;;6091144;23;20335;-72
2024/02/16 05:01:57;;;;;;;25.70;14.53;;;;;;;;;;6091293;23;20399;-71
2024/02/16 05:04:22;;;;;;;25.83;13.43;;;;;;;;;;6091367;23;20088;-73
2024/02/16 05:06:48;;;;;;;26.87;15.10;;;;;;;;;;6092681;23;20034;-71
2024/02/16 05:09:16;;;;;;;34.77;15.23;;;;;;;;;;6093049;23;20094;-71
2024/02/16 05:11:43;;;;;;;26.17;14.60;;;;;;;;;;6091403;23;20010;-71
2024/02/16 05:14:08;;;;;;;22.97;13.30;;;;;;;;;;6091374;23;20002;-71
2024/02/16 05:16:34;;;;;;;30.13;15.43;;;;;;;;;;6091812;23;20471;-70
2024/02/16 05:18:59;;;;;;;28.00;15.13;;;;;;;;;;6093021;23;20442;-71
2024/02/16 05:21:25;;;;;;;25.80;13.63;;;;;;;;;;6091176;23;20435;-73
2024/02/16 05:23:50;;;;;;;33.23;14.63;;;;;;;;;;6091233;23;20007;-72
2024/02/16 05:26:15;;;;;;;27.20;14.17;;;;;;;;;;6091129;23;20025;-71
2024/02/16 05:28:42;;;;;;;28.93;13.30;;;;;;;;;;6091383;23;20017;-70
2024/02/16 05:31:20;;;;;;;27.23;15.10;;;;;;;;;;6091228;23;20022;-69
2024/02/16 05:33:49;;;;;;;29.03;16.10;;;;;;;;;;6092702;23;20013;-73
2024/02/16 05:36:20;;;;;;;25.50;14.17;;;;;;;;;;6091198;23;20439;-71
2024/02/16 05:38:46;;;;;;;32.63;16.03;;;;;;;;;;6090883;23;20010;-71
2024/02/16 05:41:12;;;;;;;31.63;15.97;;;;;;;;;;6091114;23;20010;-70
2024/02/16 05:43:38;;;;;;;28.03;14.40;;;;;;;;;;6091457;23;20408;-70
2024/02/16 05:46:06;;;;;;;28.27;15.40;;;;;;;;;;6092498;23;20377;-71
2024/02/16 05:48:35;;;;;;;31.83;14.47;;;;;;;;;;6091891;23;20341;-70
2024/02/16 05:51:01;;;;;;;37.23;15.63;;;;;;;;;;6091987;23;20002;-72
2024/02/16 05:53:29;;;;;;;31.70;15.47;;;;;;;;;;6090663;23;20407;-71
2024/02/16 05:55:55;;;;;;;27.97;15.70;;;;;;;;;;6091562;23;20014;-72
2024/02/16 05:58:22;;;;;;;26.43;16.00;;;;;;;;;;6090954;23;20062;-71
2024/02/16 06:00:48;;;;;;;27.97;15.83;;;;;;;;;;6074990;23;20028;-71
2024/02/16 06:03:14;;;;;;;30.47;15.60;;;;;;;;;;6081083;23;20113;-71
2024/02/16 06:05:40;;;;;;;24.63;15.00;;;;;;;;;;6083633;23;20033;-71
2024/02/16 06:08:07;;;;;;;26.60;15.60;;;;;;;;;;6092075;23;20006;-70
2024/02/16 06:10:33;;;;;;;27.60;14.57;;;;;;;;;;6097004;23;20002;-71
2024/02/16 06:12:59;;;;;;;26.03;12.83;;;;;;;;;;6100295;23;20466;-69
2024/02/16 06:15:25;;;;;;;26.27;13.57;;;;;;;;;;6096750;23;20073;-72
2024/02/16 06:17:50;;;;;;;23.10;12.77;;;;;;;;;;6091722;23;20006;-72
2024/02/16 06:20:16;;;;;;;23.00;12.87;;;;;;;;;;6093098;23;20006;-70
2024/02/16 06:22:42;;;;;;;28.50;15.43;;;;;;;;;;6095239;23;20009;-71
2024/02/16 06:25:08;;;;;;;24.87;13.60;;;;;;;;;;6092444;23;20321;-72
2024/02/16 06:27:34;;;;;;;20.43;12.73;;;;;;;;;;6094364;23;20010;-70
2024/02/16 06:30:00;;;;;;;24.47;13.10;;;;;;;;;;6092023;23;20150;-71
2024/02/16 06:32:26;;;;;;;30.20;13.83;;;;;;;;;;6092443;23;20077;-72
2024/02/16 06:34:53;;;;;;;28.27;13.63;;;;;;;;;;6068408;23;20013;-74
2024/02/16 06:37:18;;;;;;;27.80;13.47;;;;;;;;;;6092406;23;20012;-71
2024/02/16 06:39:44;;;;;;;28.23;14.40;;;;;;;;;;6093030;23;20104;-71
2024/02/16 06:42:13;;;;;;;29.57;15.13;;;;;;;;;;6094277;23;20016;-71
2024/02/16 06:44:39;;;;;;;26.73;13.97;;;;;;;;;;6091919;23;20085;-71
2024/02/16 06:47:06;;;;;;;33.50;16.20;;;;;;;;;;6091195;23;20014;-72
2024/02/16 06:49:31;;;;;;;30.87;14.40;;;;;;;;;;6092281;23;20052;-71
2024/02/16 06:51:57;;;;;;;27.17;13.87;;;;;;;;;;6090453;23;20372;-70
2024/02/16 06:54:26;;;;;;;29.23;17.75;;;;;;;;;;6086663;23;20081;-71
2024/02/16 06:56:52;;;;;;;35.25;17.35;;;;;;;;;;6089850;23;20050;-71
2024/02/16 06:59:18;;;;;;;35.78;14.68;;;;;;;;;;6059570;23;20018;-73
2024/02/16 07:01:43;;;;;;;25.45;15.50;;;;;;;;;;6090481;23;20002;-71
2024/02/16 07:04:11;;;;;;;36.83;16.95;;;;;;;;;;6089580;23;20002;-75
2024/02/16 07:06:38;;;;;;;31.90;14.53;;;;;;;;;;6091916;23;20013;-75
2024/02/16 07:09:04;;;;;;;28.83;14.90;;;;;;;;;;6093541;23;20003;-71
2024/02/16 07:11:29;;;;;;;29.92;15.50;;;;;;;;;;6092270;23;20017;-72
2024/02/16 07:13:55;;;;;;;26.60;16.08;;;;;;;;;;6090799;23;20010;-71
2024/02/16 07:16:22;;;;;;;31.58;16.50;;;;;;;;;;6085511;23;20170;-71
2024/02/16 07:18:48;;;;;;;38.33;15.90;;;;;;;;;;6093333;23;20010;-73
2024/02/16 07:21:16;;;;;;;39.03;17.38;;;;;;;;;;6092780;23;20021;-72
2024/02/16 07:23:43;;;;;;;37.15;18.08;;;;;;;;;;6090748;23;20007;-72
2024/02/16 07:26:13;;;;;;;35.17;16.10;;;;;;;;;;6090942;23;20093;-71
2024/02/16 07:28:41;;;;;;;33.45;16.77;;;;;;;;;;6093361;23;20013;-73
2024/02/16 07:31:11;;;;;;;38.55;17.30;;;;;;;;;;6095529;23;20046;-71
2024/02/16 07:33:37;;;;;;;45.15;17.70;;;;;;;;;;6086139;23;20006;-71
2024/02/16 07:36:03;;;;;;;35.13;16.98;;;;;;;;;;6091491;23;20010;-70
2024/02/16 07:38:30;;;;;;;31.60;16.65;;;;;;;;;;6093471;23;20259;-71
2024/02/16 07:40:55;;;;;;;35.63;17.35;;;;;;;;;;6067739;23;20105;-71
2024/02/16 07:43:38;;;;;;;42.97;18.38;;;;;;;;;;6090959;23;20435;-76
2024/02/16 07:46:05;;;;;;;40.17;18.17;;;;;;;;;;6094010;23;20010;-72
2024/02/16 07:48:31;;;;;;;41.33;20.63;;;;;;;;;;6091459;23;20017;-72
2024/02/16 07:51:02;;;;;;;36.38;18.10;;;;;;;;;;6091025;23;20555;-73
2024/02/16 07:53:28;;;;;;;37.08;19.52;;;;;;;;;;6089485;23;20057;-70
2024/02/16 07:55:58;;;;;;;37.55;18.35;;;;;;;;;;6089483;23;20057;-74
2024/02/16 07:58:26;;;;;;;;;;;;;;;;;;6090930;23;20029;-72
2024/02/16 08:00:52;;;;;;;38.70;18.35;;;;;;;;;;6090071;23;19917;-73
2024/02/16 08:03:19;;;;;;;46.88;23.35;;;;;;;;;;6087291;23;20006;-71
2024/02/16 08:05:45;;;;;;;38.08;18.83;;;;;;;;;;6089842;23;20013;-71
2024/02/16 08:08:11;;;;;;;42.05;18.77;;;;;;;;;;6042830;23;20105;-71
2024/02/16 08:10:41;;;;;;;45.75;18.40;;;;;;;;;;6085024;23;20097;-70
2024/02/16 08:13:08;;;;;;;44.75;20.23;;;;;;;;;;6088442;23;20026;-71
2024/02/16 08:15:35;;;;;;;38.22;19.10;;;;;;;;;;6089028;23;20305;-73
2024/02/16 08:18:01;;;;;;;39.72;20.77;;;;;;;;;;6089352;23;20076;-73
2024/02/16 08:20:27;;;;;;;39.08;19.27;;;;;;;;;;6067167;23;20014;-72
2024/02/16 08:22:52;;;;;;;41.25;18.50;;;;;;;;;;6090892;23;20004;-71
2024/02/16 08:25:18;;;;;;;44.72;19.95;;;;;;;;;;6089853;23;20017;-71
2024/02/16 08:27:44;;;;;;;40.60;20.02;;;;;;;;;;6089860;23;20017;-71
2024/02/16 08:30:11;;;;;;;40.80;20.67;;;;;;;;;;6089902;23;20129;-71
2024/02/16 08:32:37;;;;;;;36.25;18.33;;;;;;;;;;6063993;23;20443;-72
2024/02/16 08:35:03;;;;;;;37.22;20.30;;;;;;;;;;6090462;23;20010;-70
2024/02/16 08:37:28;;;;;;;36.70;18.35;;;;;;;;;;6086821;23;20014;-70
2024/02/16 08:39:54;;;;;;;30.45;17.15;;;;;;;;;;6090860;23;20041;-72
2024/02/16 08:42:22;;;;;;;40.58;19.08;;;;;;;;;;6088373;23;20006;-74
2024/02/16 08:44:48;;;;;;;45.00;19.33;;;;;;;;;;6090650;23;20006;-72
2024/02/16 08:47:14;;;;;;;37.28;18.00;;;;;;;;;;6091188;23;20451;-70
2024/02/16 08:49:39;;;;;;;34.35;17.45;;;;;;;;;;6090411;23;20011;-70
2024/02/16 08:52:07;;;;;;;36.30;17.92;;;;;;;;;;6090576;23;20333;-71
2024/02/16 08:54:33;;;;;;;42.67;18.65;;;;;;;;;;6088643;23;20065;-72
2024/02/16 08:56:59;;;;;;;32.30;15.88;;;;;;;;;;6091545;23;20036;-71
2024/02/16 08:59:29;;;;;;;39.38;18.20;;;;;;;;;;6092100;23;20017;-71
2024/02/16 09:01:56;;;;;;;37.50;17.90;;;;;;;;;;6091970;23;20284;-70
2024/02/16 09:04:24;;;;;;;38.15;19.05;;;;;;;;;;6088200;23;20038;-73
2024/02/16 09:06:51;;;;;;;33.13;17.80;;;;;;;;;;6089155;23;20089;-71
2024/02/16 09:09:20;;;;;;;40.55;19.45;;;;;;;;;;6094209;23;20380;-70
2024/02/16 09:11:49;;;;;;;41.17;19.08;;;;;;;;;;6091969;23;20006;-70
2024/02/16 09:14:16;;;;;;;40.65;17.98;;;;;;;;;;6088663;23;20006;-70
2024/02/16 09:16:43;;;;;;;35.85;18.52;;;;;;;;;;6091627;23;20015;-72
2024/02/16 09:19:10;;;;;;;37.95;18.05;;;;;;;;;;6092807;23;20018;-72
2024/02/16 09:21:36;;;;;;;35.40;18.98;;;;;;;;;;6090643;23;20067;-72
2024/02/16 09:24:03;;;;;;;36.80;19.30;;;;;;;;;;6063465;23;20010;-72
2024/02/16 09:26:33;;;;;;;30.35;18.25;;;;;;;;;;6090451;23;20006;-74
2024/02/16 09:28:59;;;;;;;33.97;16.95;;;;;;;;;;6090233;23;20010;-71
2024/02/16 09:31:25;;;;;;;32.65;17.45;;;;;;;;;;6090070;23;20069;-72
2024/02/16 09:33:53;;;;;;;36.80;18.20;;;;;;;;;;6089806;23;20002;-72
2024/02/16 09:36:19;;;;;;;38.30;19.90;;;;;;;;;;6090578;23;20014;-70
2024/02/16 09:38:44;;;;;;;37.05;18.63;;;;;;;;;;6088430;23;20093;-72
2024/02/16 09:41:11;;;;;;;33.65;17.83;;;;;;;;;;6091077;23;20219;-69
2024/02/16 09:43:39;;;;;;;35.38;17.52;;;;;;;;;;6089747;23;20009;-71
2024/02/16 09:46:06;;;;;;;36.90;18.60;;;;;;;;;;6091826;23;20002;-72
2024/02/16 09:48:33;;;;;;;37.13;18.85;;;;;;;;;;6093325;23;20408;-71
2024/02/16 09:51:01;;;;;;;34.60;18.00;;;;;;;;;;6090326;23;20010;-70
2024/02/16 09:53:29;;;;;;;36.30;19.35;;;;;;;;;;6088894;23;20010;-73
2024/02/16 09:55:55;;;;;;;34.95;18.08;;;;;;;;;;6093109;23;20564;-70
2024/02/16 09:58:21;;;;;;;32.70;17.65;;;;;;;;;;6091463;23;20010;-71
2024/02/16 10:00:55;;;;;;;33.53;16.73;;;;;;;;;;6090641;23;20018;-71
2024/02/16 10:03:28;;;;;;;36.33;16.63;;;;;;;;;;6092535;23;20041;-72
2024/02/16 10:06:12;;;;;;;29.95;17.35;;;;;;;;;;6093232;23;20014;-74
2024/02/16 10:08:57;;;;;;;30.88;17.88;;;;;;;;;;6095599;23;20010;-71
2024/02/16 10:11:27;;;;;;;35.38;16.95;;;;;;;;;;6070260;23;20843;-71
2024/02/16 10:14:04;;;;;;;33.47;16.25;;;;;;;;;;6092452;23;20070;-73
2024/02/16 10:16:31;;;;;;;30.58;15.77;;;;;;;;;;6095676;23;20018;-70
2024/02/16 10:19:07;;;;;;;31.33;15.93;;;;;;;;;;6097204;23;20014;-75
2024/02/16 10:21:34;;;;;;;28.45;16.33;;;;;;;;;;6103545;23;20002;-73
2024/02/16 10:24:14;;;;;;;34.30;17.35;;;;;;;;;;6102237;23;20028;-73
2024/02/16 10:26:43;;;;;;;32.28;17.58;;;;;;;;;;6095938;23;20015;-71
2024/02/16 10:29:16;;;;;;;31.13;16.60;;;;;;;;;;6096164;23;20021;-74
2024/02/16 10:31:43;;;;;;;34.35;17.42;;;;;;;;;;6094593;23;20054;-73
2024/02/16 10:34:09;;;;;;;30.85;15.80;;;;;;;;;;6091256;23;20068;-72
2024/02/16 10:36:38;;;;;;;36.22;17.17;;;;;;;;;;6094665;23;20337;-72
2024/02/16 10:39:05;;;;;;;30.67;16.35;;;;;;;;;;6093910;23;20006;-75
2024/02/16 10:41:41;;;;;;;29.23;16.10;;;;;;;;;;6092783;23;20309;-73
2024/02/16 10:44:11;;;;;;;33.65;18.10;;;;;;;;;;6070265;23;20468;-74
2024/02/16 10:47:08;;;;;;;30.83;17.20;;;;;;;;;;6068084;23;20018;-76
2024/02/16 10:52:31;;;;;;;31.67;16.50;;;;;;;;;;6093067;23;20027;-74
2024/02/16 10:55:23;;;;;;;31.63;15.32;;;;;;;;;;6068411;23;20089;-74
2024/02/16 10:58:23;;;;;;;30.70;16.77;;;;;;;;;;6074562;23;20383;-74
2024/02/16 11:01:23;;;;;;;28.45;16.38;;;;;;;;;;6046445;23;20018;-73
2024/02/16 11:04:02;;;;;;;34.10;16.83;;;;;;;;;;6067993;23;20006;-72
2024/02/16 11:07:00;;;;;;;31.00;16.40;;;;;;;;;;6068061;23;20017;-72
2024/02/16 11:09:30;;;;;;;25.13;15.73;;;;;;;;;;6093161;23;20206;-71
2024/02/16 11:11:59;;;;;;;28.02;15.98;;;;;;;;;;6068516;23;20048;-74
2024/02/16 11:14:37;;;;;;;24.17;15.55;;;;;;;;;;6067724;23;20502;-73
2024/02/16 11:17:28;;;;;;;25.73;14.85;;;;;;;;;;6045294;23;20431;-72
2024/02/16 11:19:56;;;;;;;25.85;15.90;;;;;;;;;;6093958;23;20477;-71
2024/02/16 11:22:23;;;;;;;30.52;16.48;;;;;;;;;;6067259;23;20014;-73
2024/02/16 11:24:54;;;;;;;26.58;15.60;;;;;;;;;;6092629;23;20436;-71
2024/02/16 11:27:21;;;;;;;30.98;15.48;;;;;;;;;;6067527;23;20037;-74
2024/02/16 11:29:47;;;;;;;26.27;16.40;;;;;;;;;;6066291;23;20515;-72
2024/02/16 11:32:26;;;;;;;27.33;16.45;;;;;;;;;;6067100;23;20022;-74
2024/02/16 11:34:52;;;;;;;24.52;15.77;;;;;;;;;;6067404;23;20021;-75
2024/02/16 11:37:21;;;;;;;32.17;17.63;;;;;;;;;;6043200;23;20010;-72
2024/02/16 11:39:55;;;;;;;25.73;15.70;;;;;;;;;;6043254;23;20018;-75
2024/02/16 11:42:21;;;;;;;31.40;17.13;;;;;;;;;;6064794;23;20066;-71
2024/02/16 11:44:54;;;;;;;24.05;14.98;;;;;;;;;;6091522;23;20317;-73
2024/02/16 11:47:25;;;;;;;29.98;15.82;;;;;;;;;;6067002;23;20006;-74
2024/02/16 11:50:14;;;;;;;29.13;17.15;;;;;;;;;;6061551;23;20310;-72
2024/02/16 11:52:40;;;;;;;29.38;16.55;;;;;;;;;;6052923;23;20058;-71
2024/02/16 11:55:09;;;;;;;25.92;15.90;;;;;;;;;;6061896;23;20018;-75
2024/02/16 11:57:37;;;;;;;29.95;16.98;;;;;;;;;;6062771;23;20077;-73
2024/02/16 12:00:14;;;;;;;32.30;16.55;;;;;;;;;;6060780;23;20038;-76
2024/02/16 12:02:41;;;;;;;31.25;16.88;;;;;;;;;;6061303;23;20074;-73
2024/02/16 12:05:07;;;;;;;30.60;17.30;;;;;;;;;;6062507;23;20377;-76
2024/02/16 12:07:36;;;;;;;31.20;17.05;;;;;;;;;;6062181;23;20021;-73
2024/02/16 12:10:06;;;;;;;27.63;16.98;;;;;;;;;;6058379;23;20013;-72
2024/02/16 12:12:33;;;;;;;35.10;17.58;;;;;;;;;;6057921;23;20022;-71
2024/02/16 12:14:59;;;;;;;33.80;17.52;;;;;;;;;;6060600;23;20649;-72
2024/02/16 12:17:24;;;;;;;28.92;17.08;;;;;;;;;;6060757;23;20425;-72
2024/02/16 12:19:52;;;;;;;28.73;16.42;;;;;;;;;;6061394;23;20063;-74
2024/02/16 12:22:22;;;;;;;36.30;16.50;;;;;;;;;;6013216;23;20097;-73
2024/02/16 12:24:50;;;;;;;27.95;17.88;;;;;;;;;;6037344;23;20013;-73
2024/02/16 12:27:16;;;;;;;35.70;17.73;;;;;;;;;;6062322;23;20082;-71
2024/02/16 12:29:43;;;;;;;33.65;17.23;;;;;;;;;;6060920;23;20040;-74
2024/02/16 12:32:10;;;;;;;26.38;15.55;;;;;;;;;;6061685;23;20031;-71
2024/02/16 12:34:39;;;;;;;30.23;16.83;;;;;;;;;;6058679;23;20326;-75
2024/02/16 12:37:11;;;;;;;29.75;17.08;;;;;;;;;;6062222;23;20003;-73
2024/02/16 12:39:36;;;;;;;;;;;;;;;;;;6061595;23;20011;-71
2024/02/16 12:42:02;;;;;;;31.33;17.85;;;;;;;;;;6059138;23;19928;-72
2024/02/16 12:44:33;;;;;;;32.15;17.65;;;;;;;;;;6054143;23;20067;-73
2024/02/16 12:46:59;;;;;;;29.58;18.10;;;;;;;;;;6014826;23;20022;-74
2024/02/16 12:49:26;;;;;;;27.73;16.52;;;;;;;;;;6036991;23;20329;-72
2024/02/16 12:51:52;;;;;;;29.15;16.42;;;;;;;;;;6061603;23;20119;-71
2024/02/16 12:54:22;;;;;;;32.88;16.90;;;;;;;;;;6038298;23;20057;-73
2024/02/16 12:56:49;;;;;;;38.08;18.63;;;;;;;;;;6064524;23;20081;-72
2024/02/16 12:59:15;;;;;;;31.10;18.50;;;;;;;;;;6039646;23;20014;-71
2024/02/16 13:01:43;;;;;;;33.47;18.77;;;;;;;;;;6064579;23;20010;-71
2024/02/16 13:04:09;;;;;;;27.30;16.80;;;;;;;;;;6064331;23;20082;-69
2024/02/16 13:06:36;;;;;;;26.15;16.38;;;;;;;;;;6064182;23;20010;-72
2024/02/16 13:09:02;;;;;;;27.10;17.00;;;;;;;;;;6063985;23;20007;-71
2024/02/16 13:11:29;;;;;;;27.73;16.77;;;;;;;;;;6037442;23;20011;-75
2024/02/16 13:13:55;;;;;;;29.08;16.55;;;;;;;;;;6063273;23;20006;-73
2024/02/16 13:16:21;;;;;;;27.50;16.23;;;;;;;;;;6061238;23;20050;-72
2024/02/16 13:18:47;;;;;;;26.92;16.63;;;;;;;;;;6036796;23;20074;-73
2024/02/16 13:21:14;;;;;;;31.55;16.65;;;;;;;;;;6037838;23;20038;-73
2024/02/16 13:23:40;;;;;;;26.55;15.95;;;;;;;;;;6036540;23;20150;-72
2024/02/16 13:26:06;;;;;;;27.23;16.35;;;;;;;;;;6035157;23;20050;-74
2024/02/16 13:28:34;;;;;;;29.02;16.40;;;;;;;;;;6035470;23;20010;-73
2024/02/16 13:30:59;;;;;;;26.73;16.42;;;;;;;;;;6061475;23;20006;-74
2024/02/16 13:33:29;;;;;;;31.92;17.63;;;;;;;;;;6062747;23;20015;-72
2024/02/16 13:35:54;;;;;;;28.90;16.75;;;;;;;;;;6063190;23;20003;-71
2024/02/16 13:38:20;;;;;;;26.77;16.67;;;;;;;;;;6036908;23;20014;-72
2024/02/16 13:40:45;;;;;;;28.02;17.00;;;;;;;;;;6037562;23;20015;-71
2024/02/16 13:43:11;;;;;;;29.80;16.30;;;;;;;;;;6036774;23;20007;-73
2024/02/16 13:45:53;;;;;;;26.58;16.20;;;;;;;;;;6035944;23;20305;-72
2024/02/16 13:48:20;;;;;;;31.17;16.50;;;;;;;;;;6035691;23;20433;-71
2024/02/16 13:50:50;;;;;;;27.42;16.88;;;;;;;;;;6036467;23;20038;-71
2024/02/16 13:53:16;;;;;;;27.70;17.25;;;;;;;;;;6051172;23;20185;-73
2024/02/16 13:55:43;;;;;;;24.80;15.57;;;;;;;;;;6036376;23;20027;-73
2024/02/16 13:58:10;;;;;;;30.35;17.42;;;;;;;;;;6061641;23;20085;-71
2024/02/16 14:00:37;;;;;;;29.42;18.05;;;;;;;;;;6060115;23;20484;-75
2024/02/16 14:03:04;;;;;;;29.30;16.67;;;;;;;;;;6010683;23;20011;-72
2024/02/16 14:05:30;;;;;;;25.95;16.45;;;;;;;;;;6058862;23;20360;-73
2024/02/16 14:07:57;;;;;;;33.20;16.25;;;;;;;;;;6061375;23;20031;-71
2024/02/16 14:10:23;;;;;;;27.65;17.48;;;;;;;;;;6060082;23;20019;-73
2024/02/16 14:12:49;;;;;;;25.30;15.50;;;;;;;;;;6035847;23;20014;-70
2024/02/16 14:15:15;;;;;;;29.80;18.40;;;;;;;;;;6061076;23;20373;-73
2024/02/16 14:17:44;;;;;;;33.50;16.17;;;;;;;;;;6063121;23;20118;-70
2024/02/16 14:20:11;;;;;;;28.17;16.48;;;;;;;;;;6062142;23;20011;-72
2024/02/16 14:22:37;;;;;;;26.33;16.60;;;;;;;;;;6063497;23;20062;-73